createdAt,value
2017-08-28T00:01:45.149Z,16.00
2017-08-28T00:04:14.434Z,15.77
2017-08-28T00:06:41.977Z,16.20
2017-08-28T00:09:09.521Z,16.02
2017-08-28T00:11:37.152Z,16.53
2017-08-28T00:14:04.701Z,14.80
2017-08-28T00:16:32.244Z,15.80
2017-08-28T00:18:59.820Z,14.87
2017-08-28T00:21:27.356Z,15.50
2017-08-28T00:23:54.897Z,14.20
2017-08-28T00:26:22.492Z,16.20
2017-08-28T00:28:50.033Z,14.40
2017-08-28T00:31:17.576Z,16.30
2017-08-28T00:33:45.141Z,15.90
2017-08-28T00:36:13.605Z,16.30
2017-08-28T00:38:41.148Z,16.93
2017-08-28T00:41:08.725Z,14.30
2017-08-28T00:43:36.397Z,14.57
2017-08-28T00:46:03.949Z,15.37
2017-08-28T00:48:31.713Z,16.10
2017-08-28T00:50:59.261Z,15.70
2017-08-28T00:53:26.806Z,15.90
2017-08-28T00:55:54.384Z,15.30
2017-08-28T00:58:21.937Z,16.60
2017-08-28T01:00:49.492Z,16.50
2017-08-28T01:03:18.545Z,16.60
2017-08-28T01:05:46.290Z,16.90
2017-08-28T01:08:16.313Z,16.62
2017-08-28T01:10:43.905Z,15.57
2017-08-28T01:13:11.441Z,16.80
2017-08-28T01:15:38.990Z,15.27
2017-08-28T01:18:06.586Z,14.37
2017-08-28T01:20:34.130Z,15.43
2017-08-28T01:23:01.677Z,15.30
2017-08-28T01:25:29.261Z,15.43
2017-08-28T01:27:56.804Z,16.20
2017-08-28T01:30:24.353Z,15.40
2017-08-28T01:32:51.954Z,15.13
2017-08-28T01:35:19.513Z,14.87
2017-08-28T01:37:47.122Z,15.83
2017-08-28T01:40:17.301Z,15.90
2017-08-28T01:42:44.849Z,16.03
2017-08-28T01:45:12.401Z,15.20
2017-08-28T01:47:39.976Z,14.13
2017-08-28T01:50:07.521Z,16.25
2017-08-28T01:52:35.085Z,14.87
2017-08-28T01:55:02.702Z,15.00
2017-08-28T01:57:30.249Z,15.83
2017-08-28T01:59:57.805Z,15.60
2017-08-28T02:02:25.376Z,13.93
2017-08-28T02:04:53.545Z,14.70
2017-08-28T02:07:21.097Z,15.53
2017-08-28T02:09:49.428Z,14.80
2017-08-28T02:12:16.977Z,15.03
2017-08-28T02:14:44.517Z,14.20
2017-08-28T02:17:12.113Z,16.13
2017-08-28T02:19:39.652Z,15.20
2017-08-28T02:22:07.203Z,14.57
2017-08-28T02:24:34.801Z,13.90
2017-08-28T02:27:02.345Z,15.37
2017-08-28T02:29:29.892Z,15.67
2017-08-28T02:31:57.466Z,13.38
2017-08-28T02:34:25.013Z,14.73
2017-08-28T02:36:52.578Z,15.13
2017-08-28T02:39:20.341Z,15.15
2017-08-28T02:41:47.894Z,14.63
2017-08-28T02:44:16.540Z,16.17
2017-08-28T02:46:44.105Z,13.80
2017-08-28T02:49:11.653Z,14.60
2017-08-28T02:51:39.965Z,14.43
2017-08-28T02:54:07.536Z,15.30
2017-08-28T02:56:35.081Z,13.67
2017-08-28T02:59:02.633Z,15.10
2017-08-28T03:01:30.221Z,15.00
2017-08-28T03:03:57.765Z,13.50
2017-08-28T03:06:25.713Z,15.32
2017-08-28T03:08:53.300Z,13.67
2017-08-28T03:11:20.885Z,16.12
2017-08-28T03:13:48.433Z,15.07
2017-08-28T03:16:17.257Z,14.83
2017-08-28T03:18:44.797Z,15.73
2017-08-28T03:21:12.346Z,14.93
2017-08-28T03:23:39.953Z,14.57
2017-08-28T03:26:08.269Z,14.63
2017-08-28T03:28:35.825Z,15.50
2017-08-28T03:31:03.426Z,14.23
2017-08-28T03:33:30.973Z,16.00
2017-08-28T03:35:58.517Z,16.37
2017-08-28T03:38:26.112Z,16.30
2017-08-28T03:40:53.660Z,17.77
2017-08-28T03:43:21.205Z,16.73
2017-08-28T03:45:48.805Z,15.90
2017-08-28T03:48:16.473Z,16.47
2017-08-28T03:50:44.032Z,14.40
2017-08-28T03:53:11.609Z,14.82
2017-08-28T03:55:39.914Z,14.10
2017-08-28T03:58:07.478Z,14.20
2017-08-28T04:00:35.056Z,16.27
2017-08-28T04:03:02.601Z,15.57
2017-08-28T04:05:30.144Z,15.40
2017-08-28T04:07:59.124Z,17.20
2017-08-28T04:10:26.683Z,15.07
2017-08-28T04:12:54.233Z,15.30
2017-08-28T04:15:21.801Z,17.20
2017-08-28T04:17:50.109Z,17.63
2017-08-28T04:20:17.653Z,18.93
2017-08-28T04:22:45.229Z,19.83
2017-08-28T04:25:13.706Z,19.50
2017-08-28T04:27:41.253Z,16.57
2017-08-28T04:30:08.860Z,20.20
2017-08-28T04:32:36.428Z,24.20
2017-08-28T04:35:03.964Z,17.67
2017-08-28T04:37:31.568Z,16.02
2017-08-28T04:39:59.126Z,17.23
2017-08-28T04:42:26.674Z,22.57
2017-08-28T04:44:54.254Z,17.63
2017-08-28T04:47:21.801Z,15.25
2017-08-28T04:49:50.123Z,14.50
2017-08-28T04:52:18.217Z,14.20
2017-08-28T04:54:45.762Z,14.53
2017-08-28T04:57:23.581Z,14.68
2017-08-28T05:04:32.974Z,16.43
2017-08-28T05:07:00.513Z,14.70
2017-08-28T05:09:28.678Z,14.67
2017-08-28T05:11:56.286Z,14.70
2017-08-28T05:14:24.598Z,14.90
2017-08-28T05:16:52.149Z,14.10
2017-08-28T05:19:19.728Z,14.90
2017-08-28T05:21:47.272Z,13.33
2017-08-28T05:24:16.440Z,13.85
2017-08-28T05:26:44.781Z,12.53
2017-08-28T05:29:12.329Z,12.23
2017-08-28T05:31:39.873Z,14.47
2017-08-28T05:34:07.627Z,13.45
2017-08-28T05:36:35.199Z,14.30
2017-08-28T05:39:02.759Z,13.10
2017-08-28T05:41:31.161Z,14.70
2017-08-28T05:43:58.713Z,13.60
2017-08-28T05:46:26.272Z,13.55
2017-08-28T05:48:53.905Z,14.10
2017-08-28T05:51:21.461Z,12.90
2017-08-28T05:53:49.010Z,13.37
2017-08-28T05:56:16.608Z,13.10
2017-08-28T05:58:44.544Z,14.43
2017-08-28T06:01:12.095Z,13.00
2017-08-28T06:03:40.496Z,14.10
2017-08-28T06:06:08.032Z,14.17
2017-08-28T06:08:35.570Z,13.90
2017-08-28T06:11:03.686Z,14.67
2017-08-28T06:13:31.240Z,15.37
2017-08-28T06:15:58.827Z,16.80
2017-08-28T06:18:26.429Z,15.80
2017-08-28T06:20:53.969Z,20.30
2017-08-28T06:23:21.522Z,24.50
2017-08-28T06:25:49.105Z,18.97
2017-08-28T06:28:16.648Z,22.00
2017-08-28T06:30:44.198Z,23.90
2017-08-28T06:33:11.786Z,22.50
2017-08-28T06:35:39.337Z,24.50
2017-08-28T06:38:06.948Z,20.40
2017-08-28T06:40:34.548Z,20.40
2017-08-28T06:43:02.109Z,21.60
2017-08-28T06:45:29.661Z,26.27
2017-08-28T06:47:57.261Z,28.80
2017-08-28T06:50:24.985Z,28.67
2017-08-28T06:52:52.544Z,23.17
2017-08-28T06:55:20.116Z,22.40
2017-08-28T06:57:47.916Z,21.97
2017-08-28T07:00:15.681Z,25.05
2017-08-28T07:02:44.157Z,24.53
2017-08-28T07:05:11.695Z,24.40
2017-08-28T07:07:39.236Z,22.73
2017-08-28T07:10:07.353Z,21.80
2017-08-28T07:12:36.149Z,25.17
2017-08-28T07:15:03.830Z,23.93
2017-08-28T07:17:31.525Z,22.80
2017-08-28T07:19:59.069Z,21.70
2017-08-28T07:22:26.704Z,23.33
2017-08-28T07:24:54.420Z,23.47
2017-08-28T07:27:22.033Z,25.33
2017-08-28T07:29:49.576Z,24.17
2017-08-28T07:32:17.163Z,24.27
2017-08-28T07:34:44.731Z,24.40
2017-08-28T07:37:12.688Z,26.43
2017-08-28T07:39:40.318Z,24.40
2017-08-28T07:42:07.921Z,26.40
2017-08-28T07:44:35.500Z,26.48
2017-08-28T07:47:03.143Z,24.43
2017-08-28T07:49:30.692Z,26.83
2017-08-28T07:51:58.337Z,29.47
2017-08-28T07:54:25.945Z,30.03
2017-08-28T07:56:53.520Z,31.27
2017-08-28T07:59:21.858Z,29.63
2017-08-28T08:01:49.460Z,29.52
2017-08-28T08:04:17.013Z,31.67
2017-08-28T08:06:44.565Z,30.83
2017-08-28T08:09:12.180Z,29.33
2017-08-28T08:11:39.732Z,31.70
2017-08-28T08:14:07.826Z,32.87
2017-08-28T08:16:35.601Z,31.43
2017-08-28T08:19:03.145Z,31.70
2017-08-28T08:21:30.694Z,31.90
2017-08-28T08:23:59.034Z,34.97
2017-08-28T08:26:27.152Z,35.60
2017-08-28T08:28:54.697Z,33.67
2017-08-28T08:31:22.295Z,32.43
2017-08-28T08:33:55.557Z,35.30
2017-08-28T08:36:23.893Z,33.70
2017-08-28T08:38:51.445Z,34.70
2017-08-28T08:41:19.008Z,35.40
2017-08-28T08:43:46.581Z,33.87
2017-08-28T08:46:24.506Z,34.33
2017-08-28T08:51:26.316Z,37.07
2017-08-28T08:53:53.865Z,38.60
2017-08-28T08:56:21.410Z,33.80
2017-08-28T08:58:49.026Z,36.57
2017-08-28T09:01:16.569Z,35.85
2017-08-28T09:03:44.123Z,31.47
2017-08-28T09:06:11.701Z,36.00
2017-08-28T09:08:39.244Z,37.20
2017-08-28T09:11:06.787Z,36.23
2017-08-28T09:13:34.395Z,34.17
2017-08-28T09:16:02.194Z,37.43
2017-08-28T09:18:29.749Z,38.43
2017-08-28T09:20:58.098Z,38.20
2017-08-28T09:23:25.652Z,38.07
2017-08-28T09:25:53.216Z,38.17
2017-08-28T09:28:20.798Z,40.90
2017-08-28T09:30:48.344Z,38.93
2017-08-28T09:33:16.454Z,38.87
2017-08-28T09:35:44.068Z,39.97
2017-08-28T09:38:11.613Z,42.47
2017-08-28T09:40:39.164Z,40.67
2017-08-28T09:43:06.769Z,44.87
2017-08-28T09:45:34.317Z,39.63
2017-08-28T09:48:01.857Z,45.00
2017-08-28T09:50:29.432Z,43.33
2017-08-28T09:52:56.990Z,44.30
2017-08-28T09:55:24.541Z,46.78
2017-08-28T09:57:52.153Z,45.90
2017-08-28T10:00:19.712Z,48.68
2017-08-28T10:02:47.272Z,47.33
2017-08-28T10:05:16.540Z,46.67
2017-08-28T10:07:44.094Z,46.33
2017-08-28T10:10:11.645Z,46.77
2017-08-28T10:12:39.229Z,46.00
2017-08-28T10:15:06.774Z,44.20
2017-08-28T10:17:34.906Z,43.13
2017-08-28T10:20:02.521Z,44.40
2017-08-28T10:22:30.065Z,45.27
2017-08-28T10:24:57.610Z,44.20
2017-08-28T10:27:24.692Z,46.03
2017-08-28T10:29:52.240Z,44.57
2017-08-28T10:32:19.794Z,44.45
2017-08-28T10:34:47.378Z,43.73
2017-08-28T10:37:17.240Z,46.42
2017-08-28T10:39:46.642Z,47.30
2017-08-28T10:42:25.946Z,45.85
2017-08-28T10:47:27.376Z,44.67
2017-08-28T10:49:54.925Z,41.63
2017-08-28T10:52:22.478Z,39.27
2017-08-28T10:54:50.061Z,40.87
2017-08-28T10:57:17.613Z,41.67
2017-08-28T10:59:45.152Z,37.73
2017-08-28T11:02:14.454Z,39.03
2017-08-28T11:04:42.006Z,41.53
2017-08-28T11:07:10.368Z,39.75
2017-08-28T11:09:37.969Z,38.73
2017-08-28T11:12:05.512Z,43.00
2017-08-28T11:14:33.063Z,41.75
2017-08-28T11:17:00.648Z,41.47
2017-08-28T11:19:28.577Z,40.70
2017-08-28T11:21:56.125Z,41.07
2017-08-28T11:24:23.726Z,40.60
2017-08-28T11:26:51.286Z,38.93
2017-08-28T11:29:18.833Z,40.90
2017-08-28T11:31:46.417Z,38.40
2017-08-28T11:34:16.273Z,36.28
2017-08-28T11:36:43.828Z,35.63
2017-08-28T11:39:11.542Z,32.90
2017-08-28T11:41:39.144Z,33.80
2017-08-28T11:44:06.694Z,31.47
2017-08-28T11:46:34.301Z,34.37
2017-08-28T11:49:01.858Z,32.73
2017-08-28T11:51:29.425Z,27.87
2017-08-28T11:53:56.992Z,31.30
2017-08-28T11:56:24.561Z,33.55
2017-08-28T11:58:52.132Z,33.70
2017-08-28T12:01:21.124Z,32.77
2017-08-28T12:03:48.668Z,31.37
2017-08-28T12:06:16.575Z,31.08
2017-08-28T12:08:46.681Z,33.40
2017-08-28T12:11:26.319Z,33.53
2017-08-28T12:14:06.748Z,33.67
2017-08-28T12:16:34.297Z,30.70
2017-08-28T12:19:01.863Z,27.10
2017-08-28T12:21:30.077Z,27.87
2017-08-28T12:23:57.625Z,31.07
2017-08-28T12:26:25.182Z,28.85
2017-08-28T12:28:53.214Z,30.47
2017-08-28T12:31:21.533Z,24.67
2017-08-28T12:33:49.090Z,27.03
2017-08-28T12:36:16.672Z,29.37
2017-08-28T12:38:44.213Z,26.87
2017-08-28T12:41:11.797Z,23.83
2017-08-28T12:43:39.373Z,25.20
2017-08-28T12:46:06.922Z,27.37
2017-08-28T12:48:34.465Z,27.58
2017-08-28T12:51:02.073Z,30.03
2017-08-28T12:53:29.622Z,31.15
2017-08-28T12:55:57.177Z,27.53
2017-08-28T12:58:24.769Z,27.10
2017-08-28T13:00:52.312Z,30.57
2017-08-28T13:03:20.622Z,28.25
2017-08-28T13:05:48.198Z,28.10
2017-08-28T13:08:16.429Z,29.50
2017-08-28T13:10:43.981Z,28.20
2017-08-28T13:13:11.580Z,25.10
2017-08-28T13:15:39.120Z,25.30
2017-08-28T13:18:06.678Z,23.53
2017-08-28T13:20:34.297Z,24.33
2017-08-28T13:23:01.853Z,25.80
2017-08-28T13:25:29.400Z,24.60
2017-08-28T13:27:56.980Z,25.70
2017-08-28T13:30:24.644Z,22.80
2017-08-28T13:32:52.184Z,21.33
2017-08-28T13:35:19.802Z,19.73
2017-08-28T13:37:47.360Z,21.00
2017-08-28T13:40:16.537Z,19.85
2017-08-28T13:42:44.120Z,20.00
2017-08-28T13:45:11.674Z,22.30
2017-08-28T13:47:39.216Z,21.27
2017-08-28T13:50:06.790Z,20.90
2017-08-28T13:52:34.332Z,23.50
2017-08-28T13:55:02.651Z,23.23
2017-08-28T13:57:30.250Z,21.03
2017-08-28T13:59:57.796Z,20.80
2017-08-28T14:02:25.340Z,20.20
2017-08-28T14:04:52.922Z,23.17
2017-08-28T14:07:20.529Z,20.10
2017-08-28T14:09:48.230Z,19.80
2017-08-28T14:12:16.497Z,17.87
2017-08-28T14:14:44.041Z,20.47
2017-08-28T14:17:11.588Z,18.83
2017-08-28T14:19:39.412Z,19.00
2017-08-28T14:22:06.961Z,16.87
2017-08-28T14:24:35.005Z,17.70
2017-08-28T14:27:02.618Z,17.50
2017-08-28T14:29:30.322Z,17.47
2017-08-28T14:31:57.885Z,18.00
2017-08-28T14:34:25.482Z,17.23
2017-08-28T14:36:53.029Z,15.93
2017-08-28T14:39:20.592Z,17.27
2017-08-28T14:41:48.209Z,16.80
2017-08-28T14:44:16.498Z,17.27
2017-08-28T14:46:44.052Z,15.97
2017-08-28T14:49:11.641Z,15.33
2017-08-28T14:51:39.197Z,15.20
2017-08-28T14:54:06.750Z,15.93
2017-08-28T14:56:34.333Z,17.12
2017-08-28T14:59:01.883Z,19.60
2017-08-28T15:01:29.429Z,15.82
2017-08-28T15:03:57.036Z,15.10
2017-08-28T15:06:24.581Z,15.43
2017-08-28T15:08:52.125Z,15.47
2017-08-28T15:11:19.708Z,16.85
2017-08-28T15:13:47.353Z,18.40
2017-08-28T15:16:16.434Z,18.08
2017-08-28T15:18:44.032Z,21.20
2017-08-28T15:21:11.591Z,20.15
2017-08-28T15:23:39.177Z,20.43
2017-08-28T15:26:07.134Z,21.43
2017-08-28T15:28:34.678Z,20.43
2017-08-28T15:31:02.230Z,17.53
2017-08-28T15:33:29.826Z,19.50
2017-08-28T15:35:57.373Z,18.13
2017-08-28T15:38:24.917Z,17.27
2017-08-28T15:40:52.502Z,17.93
2017-08-28T15:43:20.055Z,17.62
2017-08-28T15:45:47.610Z,17.52
2017-08-28T15:48:16.498Z,19.00
2017-08-28T15:50:44.045Z,18.27
2017-08-28T15:53:11.588Z,17.70
2017-08-28T15:55:39.170Z,17.67
2017-08-28T15:58:07.805Z,19.00
2017-08-28T16:00:35.360Z,17.97
2017-08-28T16:03:02.937Z,19.00
2017-08-28T16:05:30.545Z,16.80
2017-08-28T16:07:58.174Z,16.93
2017-08-28T16:10:25.817Z,16.83
2017-08-28T16:12:53.450Z,17.60
2017-08-28T16:15:21.893Z,17.20
2017-08-28T16:17:49.578Z,17.43
2017-08-28T16:20:17.180Z,16.73
2017-08-28T16:22:44.979Z,17.03
2017-08-28T16:25:12.628Z,16.25
2017-08-28T16:27:40.748Z,17.13
2017-08-28T16:30:08.305Z,17.90
2017-08-28T16:32:35.946Z,17.80
2017-08-28T16:35:03.496Z,15.80
2017-08-28T16:37:31.037Z,16.00
2017-08-28T16:39:58.629Z,14.73
2017-08-28T16:42:26.181Z,14.40
2017-08-28T16:44:53.725Z,14.50
2017-08-28T16:47:21.306Z,14.70
2017-08-28T16:49:48.849Z,14.83
2017-08-28T16:52:16.456Z,14.53
2017-08-28T16:54:44.050Z,14.87
2017-08-28T16:57:11.600Z,15.35
2017-08-28T16:59:39.149Z,14.63
2017-08-28T17:02:06.853Z,14.70
2017-08-28T17:04:34.485Z,14.93
2017-08-28T17:07:02.047Z,16.40
2017-08-28T17:09:29.630Z,17.63
2017-08-28T17:11:57.189Z,15.53
2017-08-28T17:14:24.737Z,16.23
2017-08-28T17:16:52.369Z,15.77
2017-08-28T17:19:19.920Z,15.63
2017-08-28T17:21:48.228Z,15.80
2017-08-28T17:24:16.491Z,16.87
2017-08-28T17:26:44.039Z,15.40
2017-08-28T17:29:12.013Z,16.30
2017-08-28T17:31:39.672Z,16.10
2017-08-28T17:34:07.218Z,15.73
2017-08-28T17:36:34.774Z,17.50
2017-08-28T17:39:02.437Z,16.70
2017-08-28T17:41:30.001Z,17.15
2017-08-28T17:43:57.599Z,17.20
2017-08-28T17:46:25.221Z,17.10
2017-08-28T17:48:52.791Z,16.93
2017-08-28T17:51:20.386Z,18.20
2017-08-28T17:53:48.030Z,18.77
2017-08-28T17:56:16.509Z,19.40
2017-08-28T17:58:44.061Z,20.37
2017-08-28T18:01:11.666Z,18.67
2017-08-28T18:03:39.213Z,18.33
2017-08-28T18:06:06.762Z,20.60
2017-08-28T18:08:34.337Z,22.87
2017-08-28T18:11:01.966Z,22.50
2017-08-28T18:13:29.538Z,32.13
2017-08-28T18:15:57.117Z,24.17
2017-08-28T18:18:24.717Z,23.77
2017-08-28T18:20:52.295Z,26.77
2017-08-28T18:23:19.953Z,28.15
2017-08-28T18:25:47.537Z,27.15
2017-08-28T18:28:16.452Z,32.08
2017-08-28T18:30:44.098Z,29.53
2017-08-28T18:33:11.654Z,29.20
2017-08-28T18:35:39.231Z,25.93
2017-08-28T18:38:06.843Z,28.43
2017-08-28T18:40:34.411Z,30.03
2017-08-28T18:43:01.966Z,25.67
2017-08-28T18:45:30.341Z,25.27
2017-08-28T18:47:57.897Z,27.50
2017-08-28T18:50:25.457Z,27.03
2017-08-28T18:52:53.072Z,28.37
2017-08-28T18:55:20.629Z,26.60
2017-08-28T18:57:48.261Z,30.23
2017-08-28T19:00:17.232Z,28.73
2017-08-28T19:02:45.685Z,28.63
2017-08-28T19:05:24.431Z,30.73
2017-08-28T19:12:40.354Z,27.60
2017-08-28T19:15:07.962Z,28.30
2017-08-28T19:17:35.549Z,31.00
2017-08-28T19:20:03.125Z,31.63
2017-08-28T19:22:30.685Z,29.47
2017-08-28T19:24:58.235Z,27.93
2017-08-28T19:27:25.853Z,32.70
2017-08-28T19:29:53.405Z,31.33
2017-08-28T19:32:21.257Z,32.67
2017-08-28T19:34:49.608Z,34.80
2017-08-28T19:37:17.154Z,28.47
2017-08-28T19:39:44.701Z,32.87
2017-08-28T19:42:12.278Z,31.70
2017-08-28T19:44:39.834Z,29.43
2017-08-28T19:47:08.153Z,33.80
2017-08-28T19:49:35.748Z,31.80
2017-08-28T19:52:03.302Z,30.90
2017-08-28T19:54:30.865Z,31.43
2017-08-28T19:56:58.482Z,29.87
2017-08-28T19:59:26.034Z,32.20
2017-08-28T20:01:53.593Z,33.97
2017-08-28T20:04:21.165Z,35.83
2017-08-28T20:06:48.721Z,34.90
2017-08-28T20:09:16.509Z,32.08
2017-08-28T20:11:44.265Z,32.63
2017-08-28T20:14:11.817Z,33.40
2017-08-28T20:16:39.401Z,32.43
2017-08-28T20:19:06.989Z,34.70
2017-08-28T20:21:34.543Z,37.63
2017-08-28T20:24:02.141Z,35.87
2017-08-28T20:26:29.783Z,34.13
2017-08-28T20:28:57.348Z,33.63
2017-08-28T20:31:24.904Z,33.87
2017-08-28T20:33:52.896Z,34.95
2017-08-28T20:36:20.445Z,34.24
2017-08-28T20:38:47.996Z,36.83
2017-08-28T20:41:16.641Z,36.85
2017-08-28T20:43:44.193Z,34.73
2017-08-28T20:46:11.769Z,32.73
2017-08-28T20:48:39.374Z,32.23
2017-08-28T20:51:06.924Z,79.30
2017-08-28T20:53:34.470Z,38.65
2017-08-28T20:56:02.098Z,36.70
2017-08-28T20:58:29.676Z,39.47
2017-08-28T21:00:57.239Z,34.50
2017-08-28T21:03:24.839Z,34.70
2017-08-28T21:05:52.433Z,36.30
2017-08-28T21:08:20.036Z,34.63
2017-08-28T21:10:47.962Z,37.00
2017-08-28T21:13:16.450Z,36.22
2017-08-28T21:15:44.029Z,37.63
2017-08-28T21:18:11.629Z,37.85
2017-08-28T21:20:39.230Z,38.10
2017-08-28T21:23:06.802Z,36.77
2017-08-28T21:25:34.378Z,36.97
2017-08-28T21:28:01.931Z,33.50
2017-08-28T21:30:29.473Z,35.50
2017-08-28T21:32:57.053Z,36.50
2017-08-28T21:35:24.631Z,34.70
2017-08-28T21:37:52.177Z,36.30
2017-08-28T21:40:19.772Z,35.35
2017-08-28T21:42:47.313Z,37.77
2017-08-28T21:45:16.478Z,35.90
2017-08-28T21:47:44.052Z,34.60
2017-08-28T21:50:11.589Z,34.30
2017-08-28T21:52:39.899Z,34.07
2017-08-28T21:55:07.484Z,37.17
2017-08-28T21:57:35.177Z,35.90
2017-08-28T22:00:02.715Z,33.30
2017-08-28T22:02:30.363Z,35.10
2017-08-28T22:04:57.907Z,33.83
2017-08-28T22:07:25.463Z,34.15
2017-08-28T22:09:53.427Z,33.40
2017-08-28T22:12:20.977Z,35.20
2017-08-28T22:14:48.517Z,35.60
2017-08-28T22:17:16.453Z,35.97
2017-08-28T22:19:44.001Z,33.03
2017-08-28T22:22:11.544Z,35.17
2017-08-28T22:24:39.537Z,33.03
2017-08-28T22:27:07.076Z,34.57
2017-08-28T22:29:35.386Z,36.20
2017-08-28T22:32:02.957Z,36.23
2017-08-28T22:34:31.286Z,36.40
2017-08-28T22:36:59.121Z,33.00
2017-08-28T22:39:26.718Z,34.30
2017-08-28T22:41:54.269Z,36.67
2017-08-28T22:44:21.821Z,35.20
2017-08-28T22:46:49.420Z,36.63
2017-08-28T22:49:16.972Z,35.67
2017-08-28T22:51:44.522Z,35.38
2017-08-28T22:54:12.093Z,37.80
2017-08-28T22:56:39.637Z,36.83
2017-08-28T22:59:07.450Z,37.10
2017-08-28T23:01:35.025Z,38.13
2017-08-28T23:04:02.574Z,36.40
2017-08-28T23:06:30.133Z,36.10
2017-08-28T23:08:57.739Z,35.60
2017-08-28T23:11:25.285Z,36.90
2017-08-28T23:13:52.833Z,31.83
2017-08-28T23:16:20.453Z,39.53
2017-08-28T23:18:47.998Z,33.97
2017-08-28T23:21:16.425Z,34.10
2017-08-28T23:23:44.036Z,36.67
2017-08-28T23:26:11.622Z,32.42
2017-08-28T23:28:39.177Z,34.23
2017-08-28T23:31:06.852Z,36.83
2017-08-28T23:33:34.397Z,38.55
2017-08-28T23:36:01.941Z,38.10
2017-08-28T23:38:30.027Z,38.70
2017-08-28T23:40:57.557Z,38.93
2017-08-28T23:43:25.105Z,35.63
2017-08-28T23:45:52.685Z,39.80
2017-08-28T23:48:20.228Z,38.70
2017-08-28T23:50:47.777Z,39.70
2017-08-28T23:53:16.337Z,38.20
2017-08-28T23:55:44.655Z,36.10
2017-08-28T23:58:12.205Z,36.17
